sensor_id;sensor_type;location;lat;lon;timestamp;temperature;humidity
62154;DHT22;48140;45.486;9.226;2023-06-04T01:03:00;21.10;96.90
62154;DHT22;48140;45.486;9.226;2023-06-04T01:05:40;21.00;97.10
62154;DHT22;48140;45.486;9.226;2023-06-04T01:08:08;20.90;97.10
62154;DHT22;48140;45.486;9.226;2023-06-04T01:10:35;20.90;97.30
62154;DHT22;48140;45.486;9.226;2023-06-04T01:13:01;20.90;97.30
62154;DHT22;48140;45.486;9.226;2023-06-04T01:15:27;20.90;97.20
62154;DHT22;48140;45.486;9.226;2023-06-04T01:18:02;20.90;97.20
62154;DHT22;48140;45.486;9.226;2023-06-04T01:20:40;20.90;97.20
62154;DHT22;48140;45.486;9.226;2023-06-04T01:26:02;20.80;97.40
62154;DHT22;48140;45.486;9.226;2023-06-04T01:28:30;20.70;97.70
62154;DHT22;48140;45.486;9.226;2023-06-04T01:30:56;20.60;97.90
62154;DHT22;48140;45.486;9.226;2023-06-04T01:33:22;20.40;98.70
62154;DHT22;48140;45.486;9.226;2023-06-04T01:35:49;20.40;98.90
62154;DHT22;48140;45.486;9.226;2023-06-04T01:38:14;20.30;98.80
62154;DHT22;48140;45.486;9.226;2023-06-04T01:40:40;20.30;99.10
62154;DHT22;48140;45.486;9.226;2023-06-04T01:43:06;20.10;99.40
62154;DHT22;48140;45.486;9.226;2023-06-04T01:45:32;20.10;99.70
62154;DHT22;48140;45.486;9.226;2023-06-04T01:48:01;20.00;99.90
62154;DHT22;48140;45.486;9.226;2023-06-04T01:50:27;20.00;99.90
62154;DHT22;48140;45.486;9.226;2023-06-04T01:52:53;20.10;99.90
62154;DHT22;48140;45.486;9.226;2023-06-04T01:55:19;20.00;99.90
62154;DHT22;48140;45.486;9.226;2023-06-04T01:57:46;20.10;99.90
62154;DHT22;48140;45.486;9.226;2023-06-04T02:00:13;20.20;99.90
62154;DHT22;48140;45.486;9.226;2023-06-04T02:02:41;20.10;99.90
62154;DHT22;48140;45.486;9.226;2023-06-04T02:05:07;20.10;99.90
62154;DHT22;48140;45.486;9.226;2023-06-04T02:07:38;20.10;99.90
62154;DHT22;48140;45.486;9.226;2023-06-04T02:10:10;20.00;99.90
62154;DHT22;48140;45.486;9.226;2023-06-04T02:12:40;20.00;99.90
62154;DHT22;48140;45.486;9.226;2023-06-04T02:15:10;20.10;99.90
62154;DHT22;48140;45.486;9.226;2023-06-04T02:17:35;20.10;99.90
62154;DHT22;48140;45.486;9.226;2023-06-04T02:20:06;20.10;99.90
62154;DHT22;48140;45.486;9.226;2023-06-04T02:22:31;20.10;99.90
62154;DHT22;48140;45.486;9.226;2023-06-04T02:24:57;20.20;99.90
62154;DHT22;48140;45.486;9.226;2023-06-04T02:27:23;20.10;99.90
62154;DHT22;48140;45.486;9.226;2023-06-04T02:29:48;20.10;99.90
62154;DHT22;48140;45.486;9.226;2023-06-04T02:32:14;20.10;99.90
62154;DHT22;48140;45.486;9.226;2023-06-04T02:34:40;20.10;99.90
62154;DHT22;48140;45.486;9.226;2023-06-04T02:37:06;20.10;99.90
62154;DHT22;48140;45.486;9.226;2023-06-04T02:39:31;20.10;99.90
62154;DHT22;48140;45.486;9.226;2023-06-04T02:41:57;20.10;99.90
62154;DHT22;48140;45.486;9.226;2023-06-04T02:44:23;20.10;99.90
62154;DHT22;48140;45.486;9.226;2023-06-04T02:46:48;20.20;99.90
62154;DHT22;48140;45.486;9.226;2023-06-04T02:49:14;20.20;99.90
62154;DHT22;48140;45.486;9.226;2023-06-04T02:51:40;20.20;99.90
62154;DHT22;48140;45.486;9.226;2023-06-04T02:54:06;20.30;99.90
62154;DHT22;48140;45.486;9.226;2023-06-04T02:56:33;20.20;99.90
62154;DHT22;48140;45.486;9.226;2023-06-04T02:58:58;20.20;99.90
62154;DHT22;48140;45.486;9.226;2023-06-04T03:01:25;20.20;99.90
62154;DHT22;48140;45.486;9.226;2023-06-04T03:03:53;20.20;99.90
62154;DHT22;48140;45.486;9.226;2023-06-04T03:06:19;20.20;99.90
62154;DHT22;48140;45.486;9.226;2023-06-04T03:08:46;20.20;99.90
62154;DHT22;48140;45.486;9.226;2023-06-04T03:11:13;20.20;99.90
62154;DHT22;48140;45.486;9.226;2023-06-04T03:13:38;20.10;99.90
62154;DHT22;48140;45.486;9.226;2023-06-04T03:16:04;20.10;99.90
62154;DHT22;48140;45.486;9.226;2023-06-04T03:18:40;20.10;99.90
62154;DHT22;48140;45.486;9.226;2023-06-04T03:21:06;20.10;99.90
62154;DHT22;48140;45.486;9.226;2023-06-04T03:23:33;20.10;99.90
62154;DHT22;48140;45.486;9.226;2023-06-04T03:26:00;20.20;99.90
62154;DHT22;48140;45.486;9.226;2023-06-04T03:28:26;20.20;99.90
62154;DHT22;48140;45.486;9.226;2023-06-04T03:30:51;20.20;99.90
62154;DHT22;48140;45.486;9.226;2023-06-04T03:33:17;20.10;99.90
62154;DHT22;48140;45.486;9.226;2023-06-04T03:35:43;20.10;99.90
62154;DHT22;48140;45.486;9.226;2023-06-04T03:38:08;20.00;99.80
62154;DHT22;48140;45.486;9.226;2023-06-04T03:40:34;20.00;99.80
62154;DHT22;48140;45.486;9.226;2023-06-04T03:43:01;20.00;99.90
62154;DHT22;48140;45.486;9.226;2023-06-04T03:45:29;20.10;99.90
62154;DHT22;48140;45.486;9.226;2023-06-04T03:47:55;20.10;99.70
62154;DHT22;48140;45.486;9.226;2023-06-04T03:50:21;20.10;99.40
62154;DHT22;48140;45.486;9.226;2023-06-04T03:52:48;20.10;99.40
62154;DHT22;48140;45.486;9.226;2023-06-04T03:55:14;20.10;99.40
62154;DHT22;48140;45.486;9.226;2023-06-04T03:57:39;20.10;99.10
62154;DHT22;48140;45.486;9.226;2023-06-04T04:00:07;20.10;98.90
62154;DHT22;48140;45.486;9.226;2023-06-04T04:02:34;20.10;99.00
62154;DHT22;48140;45.486;9.226;2023-06-04T04:04:59;20.10;98.20
62154;DHT22;48140;45.486;9.226;2023-06-04T04:07:25;20.00;98.10
62154;DHT22;48140;45.486;9.226;2023-06-04T04:09:54;20.10;97.90
62154;DHT22;48140;45.486;9.226;2023-06-04T04:12:19;20.00;98.50
62154;DHT22;48140;45.486;9.226;2023-06-04T04:14:45;20.00;98.20
62154;DHT22;48140;45.486;9.226;2023-06-04T04:17:15;20.00;98.30
62154;DHT22;48140;45.486;9.226;2023-06-04T04:19:41;20.00;98.30
62154;DHT22;48140;45.486;9.226;2023-06-04T04:22:06;20.10;98.20
62154;DHT22;48140;45.486;9.226;2023-06-04T04:24:34;20.10;98.20
62154;DHT22;48140;45.486;9.226;2023-06-04T04:27:03;20.10;98.20
62154;DHT22;48140;45.486;9.226;2023-06-04T04:29:30;20.10;98.20
62154;DHT22;48140;45.486;9.226;2023-06-04T04:31:59;20.00;98.20
62154;DHT22;48140;45.486;9.226;2023-06-04T04:34:52;20.00;98.30
62154;DHT22;48140;45.486;9.226;2023-06-04T04:37:19;20.10;98.30
62154;DHT22;48140;45.486;9.226;2023-06-04T04:39:47;20.10;98.20
62154;DHT22;48140;45.486;9.226;2023-06-04T04:42:12;20.10;98.20
62154;DHT22;48140;45.486;9.226;2023-06-04T04:44:38;20.10;98.00
62154;DHT22;48140;45.486;9.226;2023-06-04T04:47:04;20.10;98.10
62154;DHT22;48140;45.486;9.226;2023-06-04T04:49:29;20.20;98.00
62154;DHT22;48140;45.486;9.226;2023-06-04T04:51:55;20.20;98.00
62154;DHT22;48140;45.486;9.226;2023-06-04T04:54:21;20.20;97.90
62154;DHT22;48140;45.486;9.226;2023-06-04T04:56:46;20.10;97.90
62154;DHT22;48140;45.486;9.226;2023-06-04T04:59:12;20.20;97.90
62154;DHT22;48140;45.486;9.226;2023-06-04T05:01:37;20.20;97.70
62154;DHT22;48140;45.486;9.226;2023-06-04T05:04:03;20.20;97.50
62154;DHT22;48140;45.486;9.226;2023-06-04T05:06:29;20.10;97.30
62154;DHT22;48140;45.486;9.226;2023-06-04T05:08:55;20.10;97.50
62154;DHT22;48140;45.486;9.226;2023-06-04T05:11:20;20.10;97.40
62154;DHT22;48140;45.486;9.226;2023-06-04T05:13:46;20.00;97.50
62154;DHT22;48140;45.486;9.226;2023-06-04T05:16:12;20.00;97.80
62154;DHT22;48140;45.486;9.226;2023-06-04T05:18:38;20.00;97.50
62154;DHT22;48140;45.486;9.226;2023-06-04T05:21:07;19.90;97.30
62154;DHT22;48140;45.486;9.226;2023-06-04T05:23:33;19.90;97.40
62154;DHT22;48140;45.486;9.226;2023-06-04T05:26:03;19.90;97.50
62154;DHT22;48140;45.486;9.226;2023-06-04T05:28:28;20.00;97.10
62154;DHT22;48140;45.486;9.226;2023-06-04T05:30:54;20.00;96.70
62154;DHT22;48140;45.486;9.226;2023-06-04T05:33:28;20.10;96.50
62154;DHT22;48140;45.486;9.226;2023-06-04T05:35:56;20.10;96.50
62154;DHT22;48140;45.486;9.226;2023-06-04T05:38:23;20.10;95.90
62154;DHT22;48140;45.486;9.226;2023-06-04T05:40:54;20.10;95.50
62154;DHT22;48140;45.486;9.226;2023-06-04T05:43:20;20.10;95.30
62154;DHT22;48140;45.486;9.226;2023-06-04T05:45:48;20.10;95.40
62154;DHT22;48140;45.486;9.226;2023-06-04T05:48:14;20.10;95.40
62154;DHT22;48140;45.486;9.226;2023-06-04T05:50:40;20.10;95.30
62154;DHT22;48140;45.486;9.226;2023-06-04T05:53:06;20.30;95.10
62154;DHT22;48140;45.486;9.226;2023-06-04T05:55:32;20.30;95.10
62154;DHT22;48140;45.486;9.226;2023-06-04T05:57:57;20.30;95.10
62154;DHT22;48140;45.486;9.226;2023-06-04T06:00:23;20.30;95.10
62154;DHT22;48140;45.486;9.226;2023-06-04T06:02:52;20.30;95.00
62154;DHT22;48140;45.486;9.226;2023-06-04T06:05:19;20.40;94.90
62154;DHT22;48140;45.486;9.226;2023-06-04T06:07:45;20.50;94.90
62154;DHT22;48140;45.486;9.226;2023-06-04T06:10:11;20.60;95.00
62154;DHT22;48140;45.486;9.226;2023-06-04T06:12:37;20.60;94.60
62154;DHT22;48140;45.486;9.226;2023-06-04T06:15:03;20.60;94.50
62154;DHT22;48140;45.486;9.226;2023-06-04T06:17:29;20.80;94.00
62154;DHT22;48140;45.486;9.226;2023-06-04T06:19:55;20.80;93.80
62154;DHT22;48140;45.486;9.226;2023-06-04T06:22:21;20.90;93.70
62154;DHT22;48140;45.486;9.226;2023-06-04T06:24:47;21.10;93.40
62154;DHT22;48140;45.486;9.226;2023-06-04T06:27:14;21.40;93.40
62154;DHT22;48140;45.486;9.226;2023-06-04T06:29:41;21.40;92.70
62154;DHT22;48140;45.486;9.226;2023-06-04T06:32:08;21.40;92.80
62154;DHT22;48140;45.486;9.226;2023-06-04T06:34:33;21.60;92.70
62154;DHT22;48140;45.486;9.226;2023-06-04T06:36:59;21.80;92.20
62154;DHT22;48140;45.486;9.226;2023-06-04T06:39:24;21.70;92.50
62154;DHT22;48140;45.486;9.226;2023-06-04T06:41:50;21.70;92.40
62154;DHT22;48140;45.486;9.226;2023-06-04T06:44:16;21.60;92.80
62154;DHT22;48140;45.486;9.226;2023-06-04T06:46:41;21.70;92.60
62154;DHT22;48140;45.486;9.226;2023-06-04T06:49:07;21.90;92.20
62154;DHT22;48140;45.486;9.226;2023-06-04T06:51:33;22.10;92.00
62154;DHT22;48140;45.486;9.226;2023-06-04T06:53:59;22.10;91.70
62154;DHT22;48140;45.486;9.226;2023-06-04T06:56:24;22.20;91.30
62154;DHT22;48140;45.486;9.226;2023-06-04T06:58:51;22.30;91.20
62154;DHT22;48140;45.486;9.226;2023-06-04T07:01:17;22.40;91.00
62154;DHT22;48140;45.486;9.226;2023-06-04T07:03:42;22.70;90.60
62154;DHT22;48140;45.486;9.226;2023-06-04T07:06:08;23.00;90.20
62154;DHT22;48140;45.486;9.226;2023-06-04T07:08:34;23.10;89.10
62154;DHT22;48140;45.486;9.226;2023-06-04T07:11:02;23.20;88.60
62154;DHT22;48140;45.486;9.226;2023-06-04T07:13:29;23.20;88.50
62154;DHT22;48140;45.486;9.226;2023-06-04T07:15:57;23.40;88.20
62154;DHT22;48140;45.486;9.226;2023-06-04T07:18:23;23.50;88.00
62154;DHT22;48140;45.486;9.226;2023-06-04T07:20:48;23.60;87.40
62154;DHT22;48140;45.486;9.226;2023-06-04T07:23:14;23.40;87.40
62154;DHT22;48140;45.486;9.226;2023-06-04T07:25:40;23.40;87.40
62154;DHT22;48140;45.486;9.226;2023-06-04T07:28:06;23.20;88.50
62154;DHT22;48140;45.486;9.226;2023-06-04T07:30:32;23.00;89.20
62154;DHT22;48140;45.486;9.226;2023-06-04T07:32:58;23.00;88.90
62154;DHT22;48140;45.486;9.226;2023-06-04T07:35:23;22.90;89.20
62154;DHT22;48140;45.486;9.226;2023-06-04T07:37:50;22.70;89.90
62154;DHT22;48140;45.486;9.226;2023-06-04T07:40:16;22.80;90.10
62154;DHT22;48140;45.486;9.226;2023-06-04T07:42:42;22.90;89.80
62154;DHT22;48140;45.486;9.226;2023-06-04T07:45:09;23.10;89.30
62154;DHT22;48140;45.486;9.226;2023-06-04T07:47:37;23.30;87.50
62154;DHT22;48140;45.486;9.226;2023-06-04T07:50:04;23.50;86.70
62154;DHT22;48140;45.486;9.226;2023-06-04T07:52:30;23.70;87.10
62154;DHT22;48140;45.486;9.226;2023-06-04T07:54:56;23.80;86.60
62154;DHT22;48140;45.486;9.226;2023-06-04T07:57:22;23.90;85.90
62154;DHT22;48140;45.486;9.226;2023-06-04T07:59:48;24.00;85.90
62154;DHT22;48140;45.486;9.226;2023-06-04T08:02:14;24.00;85.00
62154;DHT22;48140;45.486;9.226;2023-06-04T08:04:41;23.90;86.50
62154;DHT22;48140;45.486;9.226;2023-06-04T08:07:06;23.80;85.90
62154;DHT22;48140;45.486;9.226;2023-06-04T08:09:32;23.80;85.90
62154;DHT22;48140;45.486;9.226;2023-06-04T08:11:57;23.60;86.80
62154;DHT22;48140;45.486;9.226;2023-06-04T08:14:23;23.50;87.80
62154;DHT22;48140;45.486;9.226;2023-06-04T08:16:52;23.50;87.50
62154;DHT22;48140;45.486;9.226;2023-06-04T08:19:18;23.40;88.00
62154;DHT22;48140;45.486;9.226;2023-06-04T08:21:44;23.40;88.20
62154;DHT22;48140;45.486;9.226;2023-06-04T08:24:10;23.50;88.20
62154;DHT22;48140;45.486;9.226;2023-06-04T08:26:37;23.30;89.20
62154;DHT22;48140;45.486;9.226;2023-06-04T08:29:03;23.30;89.00
62154;DHT22;48140;45.486;9.226;2023-06-04T08:31:30;23.30;88.40
62154;DHT22;48140;45.486;9.226;2023-06-04T08:33:55;23.40;88.30
62154;DHT22;48140;45.486;9.226;2023-06-04T08:36:21;23.50;88.60
62154;DHT22;48140;45.486;9.226;2023-06-04T08:38:46;23.50;88.60
62154;DHT22;48140;45.486;9.226;2023-06-04T08:41:28;23.50;88.90
62154;DHT22;48140;45.486;9.226;2023-06-04T08:43:57;23.60;88.60
62154;DHT22;48140;45.486;9.226;2023-06-04T08:46:23;23.70;88.60
62154;DHT22;48140;45.486;9.226;2023-06-04T08:48:50;23.70;89.40
62154;DHT22;48140;45.486;9.226;2023-06-04T08:51:15;23.60;89.60
62154;DHT22;48140;45.486;9.226;2023-06-04T08:53:42;23.50;90.00
62154;DHT22;48140;45.486;9.226;2023-06-04T08:56:08;23.50;90.20
62154;DHT22;48140;45.486;9.226;2023-06-04T08:58:36;23.30;90.20
62154;DHT22;48140;45.486;9.226;2023-06-04T09:01:02;23.30;90.60
62154;DHT22;48140;45.486;9.226;2023-06-04T09:03:29;23.30;90.80
62154;DHT22;48140;45.486;9.226;2023-06-04T09:05:58;23.30;91.10
62154;DHT22;48140;45.486;9.226;2023-06-04T09:08:25;23.30;91.00
62154;DHT22;48140;45.486;9.226;2023-06-04T09:10:54;23.30;91.00
62154;DHT22;48140;45.486;9.226;2023-06-04T09:13:22;23.30;91.10
62154;DHT22;48140;45.486;9.226;2023-06-04T09:16:04;23.30;91.20
62154;DHT22;48140;45.486;9.226;2023-06-04T09:18:32;23.30;91.40
62154;DHT22;48140;45.486;9.226;2023-06-04T09:21:08;23.20;91.40
62154;DHT22;48140;45.486;9.226;2023-06-04T09:26:09;23.00;91.40
62154;DHT22;48140;45.486;9.226;2023-06-04T09:28:35;22.90;93.00
62154;DHT22;48140;45.486;9.226;2023-06-04T09:31:02;22.70;93.20
62154;DHT22;48140;45.486;9.226;2023-06-04T09:33:28;22.80;93.20
62154;DHT22;48140;45.486;9.226;2023-06-04T09:35:57;22.80;93.20
62154;DHT22;48140;45.486;9.226;2023-06-04T09:38:31;22.80;92.50
62154;DHT22;48140;45.486;9.226;2023-06-04T09:40:57;22.80;92.80
62154;DHT22;48140;45.486;9.226;2023-06-04T09:43:23;22.80;92.90
62154;DHT22;48140;45.486;9.226;2023-06-04T09:45:49;22.80;93.50
62154;DHT22;48140;45.486;9.226;2023-06-04T09:48:21;22.60;94.10
62154;DHT22;48140;45.486;9.226;2023-06-04T09:50:47;22.50;94.40
62154;DHT22;48140;45.486;9.226;2023-06-04T09:53:20;22.30;94.80
62154;DHT22;48140;45.486;9.226;2023-06-04T09:56:02;21.90;95.80
62154;DHT22;48140;45.486;9.226;2023-06-04T09:58:32;21.40;97.20
62154;DHT22;48140;45.486;9.226;2023-06-04T10:01:00;21.30;99.90
62154;DHT22;48140;45.486;9.226;2023-06-04T10:03:33;21.00;99.90
62154;DHT22;48140;45.486;9.226;2023-06-04T10:06:04;20.90;99.90
62154;DHT22;48140;45.486;9.226;2023-06-04T10:08:32;20.80;99.90
62154;DHT22;48140;45.486;9.226;2023-06-04T10:10:59;20.60;99.90
62154;DHT22;48140;45.486;9.226;2023-06-04T10:13:31;20.50;99.90
62154;DHT22;48140;45.486;9.226;2023-06-04T10:16:01;20.50;99.90
62154;DHT22;48140;45.486;9.226;2023-06-04T10:18:28;20.10;99.90
62154;DHT22;48140;45.486;9.226;2023-06-04T10:20:57;19.90;99.90
62154;DHT22;48140;45.486;9.226;2023-06-04T10:23:23;20.00;99.90
62154;DHT22;48140;45.486;9.226;2023-06-04T10:25:50;20.00;99.90
62154;DHT22;48140;45.486;9.226;2023-06-04T10:28:19;20.00;99.90
62154;DHT22;48140;45.486;9.226;2023-06-04T10:30:46;20.10;99.90
62154;DHT22;48140;45.486;9.226;2023-06-04T10:33:12;20.00;99.90
62154;DHT22;48140;45.486;9.226;2023-06-04T10:35:38;20.00;99.90
62154;DHT22;48140;45.486;9.226;2023-06-04T10:38:11;20.00;99.90
62154;DHT22;48140;45.486;9.226;2023-06-04T10:40:39;20.10;99.90
62154;DHT22;48140;45.486;9.226;2023-06-04T10:43:09;20.00;99.90
62154;DHT22;48140;45.486;9.226;2023-06-04T10:45:35;20.00;99.90
62154;DHT22;48140;45.486;9.226;2023-06-04T10:48:06;20.10;99.90
62154;DHT22;48140;45.486;9.226;2023-06-04T10:50:33;20.20;99.90
62154;DHT22;48140;45.486;9.226;2023-06-04T10:52:59;20.20;99.90
62154;DHT22;48140;45.486;9.226;2023-06-04T10:55:29;20.10;99.90
62154;DHT22;48140;45.486;9.226;2023-06-04T10:57:56;20.10;99.90
62154;DHT22;48140;45.486;9.226;2023-06-04T11:00:41;20.10;99.90
62154;DHT22;48140;45.486;9.226;2023-06-04T11:03:09;20.20;99.90
62154;DHT22;48140;45.486;9.226;2023-06-04T11:05:39;20.30;99.90
62154;DHT22;48140;45.486;9.226;2023-06-04T11:08:06;20.20;99.90
62154;DHT22;48140;45.486;9.226;2023-06-04T11:10:37;20.40;99.90
62154;DHT22;48140;45.486;9.226;2023-06-04T11:13:04;20.60;99.90
62154;DHT22;48140;45.486;9.226;2023-06-04T11:15:43;20.70;99.90
62154;DHT22;48140;45.486;9.226;2023-06-04T11:18:22;20.90;99.90
62154;DHT22;48140;45.486;9.226;2023-06-04T11:20:57;21.00;99.90
62154;DHT22;48140;45.486;9.226;2023-06-04T11:23:23;21.30;99.90
62154;DHT22;48140;45.486;9.226;2023-06-04T11:25:52;21.50;99.90
62154;DHT22;48140;45.486;9.226;2023-06-04T11:28:19;22.00;99.70
62154;DHT22;48140;45.486;9.226;2023-06-04T11:31:05;22.30;98.60
62154;DHT22;48140;45.486;9.226;2023-06-04T11:33:44;22.40;96.20
62154;DHT22;48140;45.486;9.226;2023-06-04T11:36:21;22.70;97.80
62154;DHT22;48140;45.486;9.226;2023-06-04T11:39:01;22.90;96.70
62154;DHT22;48140;45.486;9.226;2023-06-04T11:41:30;23.40;96.00
62154;DHT22;48140;45.486;9.226;2023-06-04T11:43:57;23.80;95.30
62154;DHT22;48140;45.486;9.226;2023-06-04T11:46:24;24.00;94.00
62154;DHT22;48140;45.486;9.226;2023-06-04T11:48:53;24.20;94.20
62154;DHT22;48140;45.486;9.226;2023-06-04T11:51:20;24.20;92.10
62154;DHT22;48140;45.486;9.226;2023-06-04T11:53:46;24.50;90.40
62154;DHT22;48140;45.486;9.226;2023-06-04T11:56:12;24.60;88.10
62154;DHT22;48140;45.486;9.226;2023-06-04T11:58:38;24.90;87.60
62154;DHT22;48140;45.486;9.226;2023-06-04T12:01:06;24.90;84.70
62154;DHT22;48140;45.486;9.226;2023-06-04T12:03:38;25.20;85.50
62154;DHT22;48140;45.486;9.226;2023-06-04T12:06:14;25.60;84.40
62154;DHT22;48140;45.486;9.226;2023-06-04T12:08:48;25.80;82.40
62154;DHT22;48140;45.486;9.226;2023-06-04T12:11:31;26.20;81.80
62154;DHT22;48140;45.486;9.226;2023-06-04T12:14:05;26.50;79.00
62154;DHT22;48140;45.486;9.226;2023-06-04T12:16:31;26.80;76.90
62154;DHT22;48140;45.486;9.226;2023-06-04T12:19:11;26.80;77.50
62154;DHT22;48140;45.486;9.226;2023-06-04T12:21:38;26.80;73.70
62154;DHT22;48140;45.486;9.226;2023-06-04T12:24:16;27.00;76.20
62154;DHT22;48140;45.486;9.226;2023-06-04T12:26:42;26.90;75.50
62154;DHT22;48140;45.486;9.226;2023-06-04T12:29:17;27.10;76.00
62154;DHT22;48140;45.486;9.226;2023-06-04T12:31:46;27.20;74.70
62154;DHT22;48140;45.486;9.226;2023-06-04T12:34:14;27.20;73.30
62154;DHT22;48140;45.486;9.226;2023-06-04T12:36:43;27.20;74.90
62154;DHT22;48140;45.486;9.226;2023-06-04T12:39:08;27.30;72.00
62154;DHT22;48140;45.486;9.226;2023-06-04T12:41:35;27.40;70.50
62154;DHT22;48140;45.486;9.226;2023-06-04T12:44:02;27.60;67.90
62154;DHT22;48140;45.486;9.226;2023-06-04T12:46:27;27.90;65.20
62154;DHT22;48140;45.486;9.226;2023-06-04T12:48:53;27.90;62.00
62154;DHT22;48140;45.486;9.226;2023-06-04T12:51:20;28.20;61.60
62154;DHT22;48140;45.486;9.226;2023-06-04T12:53:46;28.30;59.00
62154;DHT22;48140;45.486;9.226;2023-06-04T12:56:13;28.40;58.70
62154;DHT22;48140;45.486;9.226;2023-06-04T12:58:39;28.60;57.80
62154;DHT22;48140;45.486;9.226;2023-06-04T13:01:04;29.00;59.60
62154;DHT22;48140;45.486;9.226;2023-06-04T13:03:31;29.30;60.70
62154;DHT22;48140;45.486;9.226;2023-06-04T13:05:57;29.20;59.00
62154;DHT22;48140;45.486;9.226;2023-06-04T13:08:23;29.30;59.40
62154;DHT22;48140;45.486;9.226;2023-06-04T13:10:51;29.50;57.70
62154;DHT22;48140;45.486;9.226;2023-06-04T13:13:17;29.50;58.80
62154;DHT22;48140;45.486;9.226;2023-06-04T13:15:43;29.40;59.70
62154;DHT22;48140;45.486;9.226;2023-06-04T13:18:09;29.20;60.30
62154;DHT22;48140;45.486;9.226;2023-06-04T13:20:39;28.80;59.30
62154;DHT22;48140;45.486;9.226;2023-06-04T13:23:06;28.70;60.00
62154;DHT22;48140;45.486;9.226;2023-06-04T13:25:32;28.70;58.80
62154;DHT22;48140;45.486;9.226;2023-06-04T13:28:04;28.70;59.50
62154;DHT22;48140;45.486;9.226;2023-06-04T13:30:30;28.70;61.50
62154;DHT22;48140;45.486;9.226;2023-06-04T13:32:56;28.70;61.50
62154;DHT22;48140;45.486;9.226;2023-06-04T13:35:24;28.40;60.70
62154;DHT22;48140;45.486;9.226;2023-06-04T13:37:49;28.30;60.50
62154;DHT22;48140;45.486;9.226;2023-06-04T13:40:15;28.20;57.80
62154;DHT22;48140;45.486;9.226;2023-06-04T13:42:41;28.00;60.20
62154;DHT22;48140;45.486;9.226;2023-06-04T13:45:08;27.90;60.70
62154;DHT22;48140;45.486;9.226;2023-06-04T13:47:34;28.00;62.10
62154;DHT22;48140;45.486;9.226;2023-06-04T13:50:00;27.80;63.50
62154;DHT22;48140;45.486;9.226;2023-06-04T13:52:26;27.80;62.90
62154;DHT22;48140;45.486;9.226;2023-06-04T13:54:54;27.80;63.80
62154;DHT22;48140;45.486;9.226;2023-06-04T13:57:20;27.90;64.30
62154;DHT22;48140;45.486;9.226;2023-06-04T13:59:46;28.10;62.70
62154;DHT22;48140;45.486;9.226;2023-06-04T14:02:11;28.40;62.00
62154;DHT22;48140;45.486;9.226;2023-06-04T14:04:37;28.70;60.50
62154;DHT22;48140;45.486;9.226;2023-06-04T14:07:03;29.10;58.70
62154;DHT22;48140;45.486;9.226;2023-06-04T14:09:28;29.20;57.40
62154;DHT22;48140;45.486;9.226;2023-06-04T14:11:54;29.30;56.80
62154;DHT22;48140;45.486;9.226;2023-06-04T14:14:20;29.20;56.60
62154;DHT22;48140;45.486;9.226;2023-06-04T14:16:49;29.20;56.60
62154;DHT22;48140;45.486;9.226;2023-06-04T14:19:15;28.90;56.00
62154;DHT22;48140;45.486;9.226;2023-06-04T14:21:43;28.80;58.10
62154;DHT22;48140;45.486;9.226;2023-06-04T14:24:10;28.70;57.40
62154;DHT22;48140;45.486;9.226;2023-06-04T14:26:36;28.50;56.90
62154;DHT22;48140;45.486;9.226;2023-06-04T14:29:02;28.70;56.50
62154;DHT22;48140;45.486;9.226;2023-06-04T14:31:27;28.60;57.10
62154;DHT22;48140;45.486;9.226;2023-06-04T14:33:53;28.70;59.20
62154;DHT22;48140;45.486;9.226;2023-06-04T14:36:19;28.70;58.70
62154;DHT22;48140;45.486;9.226;2023-06-04T14:38:45;28.60;60.20
62154;DHT22;48140;45.486;9.226;2023-06-04T14:41:11;28.50;59.50
62154;DHT22;48140;45.486;9.226;2023-06-04T14:43:37;28.40;59.00
62154;DHT22;48140;45.486;9.226;2023-06-04T14:46:02;28.30;60.70
62154;DHT22;48140;45.486;9.226;2023-06-04T14:48:28;28.10;61.40
62154;DHT22;48140;45.486;9.226;2023-06-04T14:50:54;28.00;60.70
62154;DHT22;48140;45.486;9.226;2023-06-04T14:53:21;27.90;62.40
62154;DHT22;48140;45.486;9.226;2023-06-04T14:55:47;27.80;63.60
62154;DHT22;48140;45.486;9.226;2023-06-04T14:58:13;27.70;61.00
62154;DHT22;48140;45.486;9.226;2023-06-04T15:00:39;27.60;62.20
62154;DHT22;48140;45.486;9.226;2023-06-04T15:03:05;27.60;64.30
62154;DHT22;48140;45.486;9.226;2023-06-04T15:05:32;27.70;64.10
62154;DHT22;48140;45.486;9.226;2023-06-04T15:07:58;27.50;63.90
62154;DHT22;48140;45.486;9.226;2023-06-04T15:10:25;27.40;65.20
62154;DHT22;48140;45.486;9.226;2023-06-04T15:12:55;27.20;66.50
62154;DHT22;48140;45.486;9.226;2023-06-04T15:15:20;27.00;67.80
62154;DHT22;48140;45.486;9.226;2023-06-04T15:17:47;26.90;67.10
62154;DHT22;48140;45.486;9.226;2023-06-04T15:20:13;26.90;68.50
62154;DHT22;48140;45.486;9.226;2023-06-04T15:22:39;26.90;68.30
62154;DHT22;48140;45.486;9.226;2023-06-04T15:25:05;26.80;66.40
62154;DHT22;48140;45.486;9.226;2023-06-04T15:27:31;26.60;66.30
62154;DHT22;48140;45.486;9.226;2023-06-04T15:29:57;26.60;69.10
62154;DHT22;48140;45.486;9.226;2023-06-04T15:32:23;26.60;68.90
62154;DHT22;48140;45.486;9.226;2023-06-04T15:34:49;26.40;68.80
62154;DHT22;48140;45.486;9.226;2023-06-04T15:37:14;26.40;67.60
62154;DHT22;48140;45.486;9.226;2023-06-04T15:39:40;26.30;70.00
62154;DHT22;48140;45.486;9.226;2023-06-04T15:42:06;26.20;68.80
62154;DHT22;48140;45.486;9.226;2023-06-04T15:44:32;26.20;70.70
62154;DHT22;48140;45.486;9.226;2023-06-04T15:46:57;26.10;69.70
62154;DHT22;48140;45.486;9.226;2023-06-04T15:49:23;26.00;71.40
62154;DHT22;48140;45.486;9.226;2023-06-04T15:51:49;25.90;70.80
62154;DHT22;48140;45.486;9.226;2023-06-04T15:54:14;25.90;73.40
62154;DHT22;48140;45.486;9.226;2023-06-04T15:56:40;25.90;73.60
62154;DHT22;48140;45.486;9.226;2023-06-04T15:59:06;25.80;72.40
62154;DHT22;48140;45.486;9.226;2023-06-04T16:01:32;25.70;74.40
62154;DHT22;48140;45.486;9.226;2023-06-04T16:03:57;25.30;80.40
62154;DHT22;48140;45.486;9.226;2023-06-04T16:06:23;24.90;83.70
62154;DHT22;48140;45.486;9.226;2023-06-04T16:08:49;24.50;86.70
62154;DHT22;48140;45.486;9.226;2023-06-04T16:11:15;24.10;88.70
62154;DHT22;48140;45.486;9.226;2023-06-04T16:13:41;23.90;90.00
62154;DHT22;48140;45.486;9.226;2023-06-04T16:16:07;24.00;88.90
62154;DHT22;48140;45.486;9.226;2023-06-04T16:18:33;24.00;88.00
62154;DHT22;48140;45.486;9.226;2023-06-04T16:20:59;23.70;87.20
62154;DHT22;48140;45.486;9.226;2023-06-04T16:23:26;23.80;88.30
62154;DHT22;48140;45.486;9.226;2023-06-04T16:25:52;23.90;87.50
62154;DHT22;48140;45.486;9.226;2023-06-04T16:28:17;24.10;87.00
62154;DHT22;48140;45.486;9.226;2023-06-04T16:30:44;24.10;87.10
62154;DHT22;48140;45.486;9.226;2023-06-04T16:33:11;24.20;87.10
62154;DHT22;48140;45.486;9.226;2023-06-04T16:35:37;24.30;87.00
62154;DHT22;48140;45.486;9.226;2023-06-04T16:38:03;24.20;86.30